Antrim, NH

4:00 AM EST on December 18, 2014 (GMT -0500)
Clark Farm | Change Station
CLOSE
Current Station
Personal Weather Station
Location: Hancock, NH
Elevation: 1299 ft
Nearby Weather Stations

Elev 1299 ft 43.00 °N, 72.02 °W | Updated 4 minutes ago

Snow
Snow
32.1 °F
Feels Like 24 °F
N
10.0
Wind Variable Wind from NW
Gusts 15.0 mph

Today
High -- | Low -- °F
--% Chance of Precip.
Yesterday
High -- | Low -- °F
Precip. -- in
7:14 AM 4:14 PM
Waning Crescent, 16% visible
Pressure 29.74 in
Visibility 3.0 miles
Clouds Few 1400 ft
Mostly Cloudy 4400 ft
Overcast 5500 ft
Windchill 24 °F
Dew Point 31 °F
Humidity 95%
Rainfall 0.00 in
Snow Depth Not available.
UV 0 out of 12
Pollen .10 out of 12
Air Quality Not available.
Flu Activity Not available.
METAR KAFN 180852Z AUTO 28007KT 240V310 3SM -SN BR FEW014 BKN044 OVC055 01/M02 A2970 RMK AO2 SNB16 SLP070 P0000 60000 T00061017 58001

More Conditions Fewer Conditions

Pressure 29.74 in
Visibility 3.0 miles
Clouds Few 1400 ft
Mostly Cloudy 4400 ft
Overcast 5500 ft
Windchill 24 °F
Dew Point 31 °F
Humidity 95%
Rainfall 0.00 in
Snow Depth Not available.
UV 0 out of 12
Pollen .10 out of 12
Air Quality Not available.
Flu Activity Not available.
METAR KAFN 180852Z AUTO 28007KT 240V310 3SM -SN BR FEW014 BKN044 OVC055 01/M02 A2970 RMK AO2 SNB16 SLP070 P0000 60000 T00061017 58001

More Conditions Fewer Conditions

10-Day Weather Forecast

Almanac

Astronomy

Dec. 18, 2014 Rise Set
Actual Time
Civil Twilight
Nautical Twilight
Astronomical Twilight
Moon
Length of Visible Light
Length of Day
Tomorrow will be .
, % of the Moon is Illuminated

Today's Extremes

State Highs State Lows

Community

WunderPhotos

Upload Photos

1,778,907 photos uploaded!

WunderBlogs® & News

Nearby

Air Quality

  Air Quality AQ Index Pollutant
Not available.

Snow Depth

Station Depth Elevation

Earthquake Activity

City Distance Mag. Time & Date
Minimum magnitude displayed is 2.5.

Coastal Water Temperatures

Place Temperature

Nearby Weather Stations